createdAt,value
2018-02-15T00:01:12.248Z,23.63
2018-02-15T00:03:41.954Z,21.52
2018-02-15T00:06:14.551Z,16.00
2018-02-15T00:08:43.098Z,23.90
2018-02-15T00:11:10.567Z,20.43
2018-02-15T00:13:38.053Z,17.33
2018-02-15T00:16:06.438Z,20.97
2018-02-15T00:18:33.907Z,23.47
2018-02-15T00:21:05.315Z,24.40
2018-02-15T00:23:32.773Z,19.47
2018-02-15T00:26:00.254Z,19.10
2018-02-15T00:28:27.847Z,22.00
2018-02-15T00:30:55.846Z,19.15
2018-02-15T00:33:23.300Z,15.40
2018-02-15T00:35:50.792Z,19.73
2018-02-15T00:38:19.036Z,19.40
2018-02-15T00:40:47.988Z,23.17
2018-02-15T00:43:15.556Z,17.77
2018-02-15T00:45:42.999Z,19.20
2018-02-15T00:48:10.706Z,20.50
2018-02-15T00:50:42.169Z,15.77
2018-02-15T00:53:10.237Z,17.90
2018-02-15T00:55:37.719Z,20.73
2018-02-15T00:58:05.204Z,22.13
2018-02-15T01:00:32.907Z,20.97
2018-02-15T01:03:00.370Z,16.27
2018-02-15T01:05:30.251Z,17.97
2018-02-15T01:07:57.720Z,37.10
2018-02-15T01:10:25.401Z,28.60
2018-02-15T01:12:53.786Z,24.70
2018-02-15T01:15:21.320Z,21.33
2018-02-15T01:17:48.796Z,15.93
2018-02-15T01:20:16.244Z,18.52
2018-02-15T01:22:43.721Z,17.87
2018-02-15T01:25:11.184Z,23.50
2018-02-15T01:27:38.655Z,20.90
2018-02-15T01:30:06.230Z,17.60
2018-02-15T01:32:33.709Z,18.97
2018-02-15T01:35:01.155Z,18.80
2018-02-15T01:37:28.745Z,15.73
2018-02-15T01:39:56.990Z,20.20
2018-02-15T01:42:24.443Z,28.30
2018-02-15T01:44:51.901Z,23.63
2018-02-15T01:47:19.483Z,26.87
2018-02-15T01:49:58.587Z,26.10
2018-02-15T01:52:29.474Z,26.53
2018-02-15T01:54:56.914Z,24.20
2018-02-15T01:57:24.406Z,24.42
2018-02-15T01:59:51.857Z,22.20
2018-02-15T02:02:19.355Z,22.07
2018-02-15T02:04:48.255Z,29.25
2018-02-15T02:07:19.304Z,26.00
2018-02-15T02:09:46.750Z,26.70
2018-02-15T02:12:14.302Z,27.40
2018-02-15T02:14:42.380Z,27.37
2018-02-15T02:17:09.859Z,29.10
2018-02-15T02:19:37.336Z,23.67
2018-02-15T02:22:04.808Z,32.05
2018-02-15T02:24:32.421Z,24.73
2018-02-15T02:27:00.009Z,31.90
2018-02-15T02:29:27.512Z,28.53
2018-02-15T02:31:55.801Z,27.67
2018-02-15T02:34:23.244Z,27.85
2018-02-15T02:36:50.720Z,27.47
2018-02-15T02:39:18.200Z,27.50
2018-02-15T02:41:45.664Z,26.52
2018-02-15T02:44:13.147Z,34.60
2018-02-15T02:46:40.644Z,32.67
2018-02-15T02:49:10.278Z,34.55
2018-02-15T02:51:37.769Z,29.58
2018-02-15T02:54:05.286Z,30.15
2018-02-15T02:56:33.092Z,33.63
2018-02-15T02:59:01.315Z,27.20
2018-02-15T03:01:28.816Z,36.10
2018-02-15T03:03:56.289Z,35.40
2018-02-15T03:06:24.659Z,26.27
2018-02-15T03:08:55.389Z,34.50
2018-02-15T03:11:23.776Z,38.30
2018-02-15T03:13:51.243Z,36.23
2018-02-15T03:16:18.708Z,33.23
2018-02-15T03:18:46.188Z,28.50
2018-02-15T03:21:13.663Z,34.55
2018-02-15T03:23:44.712Z,36.17
2018-02-15T03:26:12.736Z,31.67
2018-02-15T03:28:40.180Z,33.70
2018-02-15T03:31:08.649Z,33.38
2018-02-15T03:33:36.116Z,36.40
2018-02-15T03:36:04.433Z,30.97
2018-02-15T03:38:32.279Z,32.96
2018-02-15T03:40:59.903Z,31.77
2018-02-15T03:43:27.336Z,37.33
2018-02-15T03:45:54.881Z,36.47
2018-02-15T03:48:22.355Z,33.25
2018-02-15T03:50:49.800Z,40.25
2018-02-15T03:53:17.320Z,34.73
2018-02-15T03:55:44.792Z,38.47
2018-02-15T03:58:12.284Z,36.47
2018-02-15T04:00:39.728Z,38.58
2018-02-15T04:03:07.212Z,38.60
2018-02-15T04:05:35.308Z,34.17
2018-02-15T04:08:03.536Z,41.10
2018-02-15T04:10:31.016Z,40.90
2018-02-15T04:12:58.500Z,35.47
2018-02-15T04:15:26.725Z,31.47
2018-02-15T04:17:54.511Z,40.58
2018-02-15T04:20:21.997Z,40.83
2018-02-15T04:22:49.468Z,31.80
2018-02-15T04:25:16.924Z,40.10
2018-02-15T04:27:44.403Z,37.25
2018-02-15T04:30:11.877Z,33.70
2018-02-15T04:32:39.407Z,36.50
2018-02-15T04:35:06.910Z,32.90
2018-02-15T04:37:34.391Z,35.28
2018-02-15T04:40:05.730Z,35.45
2018-02-15T04:42:33.180Z,32.50
2018-02-15T04:45:00.654Z,36.20
2018-02-15T04:47:28.684Z,39.63
2018-02-15T04:49:56.352Z,39.45
2018-02-15T04:52:23.814Z,38.72
2018-02-15T04:54:56.924Z,36.53
2018-02-15T04:57:24.666Z,38.08
2018-02-15T04:59:52.814Z,36.15
2018-02-15T05:02:20.680Z,35.90
2018-02-15T05:04:48.160Z,39.08
2018-02-15T05:07:15.603Z,38.17
2018-02-15T05:09:55.854Z,33.83
2018-02-15T05:12:26.120Z,38.53
2018-02-15T05:14:54.355Z,37.28
2018-02-15T05:17:21.816Z,40.63
2018-02-15T05:19:49.400Z,42.23
2018-02-15T05:22:16.888Z,41.03
2018-02-15T05:24:45.363Z,43.03
2018-02-15T05:27:14.291Z,36.78
2018-02-15T05:29:41.732Z,44.63
2018-02-15T05:32:09.177Z,39.27
2018-02-15T05:34:37.420Z,41.88
2018-02-15T05:37:04.876Z,46.37
2018-02-15T05:39:33.872Z,43.05
2018-02-15T05:42:04.724Z,41.23
2018-02-15T05:44:32.296Z,40.53
2018-02-15T05:46:59.787Z,35.23
2018-02-15T05:49:27.921Z,39.38
2018-02-15T05:51:55.451Z,40.70
2018-02-15T05:54:22.937Z,40.60
2018-02-15T05:56:50.576Z,42.40
2018-02-15T05:59:18.070Z,36.30
2018-02-15T06:01:45.531Z,34.67
2018-02-15T06:04:13.763Z,40.13
2018-02-15T06:06:41.459Z,35.67
2018-02-15T06:09:09.125Z,38.30
2018-02-15T06:11:36.615Z,43.27
2018-02-15T06:14:04.092Z,39.92
2018-02-15T06:16:31.572Z,36.78
2018-02-15T06:18:59.089Z,37.00
2018-02-15T06:21:26.533Z,39.73
2018-02-15T06:23:54.264Z,33.15
2018-02-15T06:26:21.741Z,36.20
2018-02-15T06:28:49.507Z,37.47
2018-02-15T06:31:17.227Z,41.10
2018-02-15T06:33:44.740Z,36.03
2018-02-15T06:36:12.367Z,30.77
2018-02-15T06:38:39.847Z,35.10
2018-02-15T06:41:07.323Z,34.07
2018-02-15T06:43:34.809Z,39.40
2018-02-15T06:46:02.260Z,41.97
2018-02-15T06:48:29.801Z,29.93
2018-02-15T06:50:58.719Z,34.88
2018-02-15T06:53:26.235Z,30.97
2018-02-15T06:55:53.707Z,35.40
2018-02-15T06:58:21.183Z,27.90
2018-02-15T07:00:48.716Z,38.40
2018-02-15T07:03:17.148Z,31.37
2018-02-15T07:05:44.609Z,31.30
2018-02-15T07:08:12.108Z,34.37
2018-02-15T07:10:39.552Z,29.60
2018-02-15T07:13:10.452Z,29.83
2018-02-15T07:15:37.928Z,36.17
2018-02-15T07:18:05.584Z,33.17
2018-02-15T07:20:33.127Z,34.08
2018-02-15T07:23:01.096Z,36.80
2018-02-15T07:25:28.648Z,31.90
2018-02-15T07:27:59.472Z,28.50
2018-02-15T07:30:26.915Z,30.90
2018-02-15T07:32:54.388Z,27.33
2018-02-15T07:35:21.864Z,32.23
2018-02-15T07:37:50.329Z,30.17
2018-02-15T07:40:17.792Z,32.10
2018-02-15T07:42:45.241Z,30.20
2018-02-15T07:45:12.701Z,31.90
2018-02-15T07:47:40.151Z,32.60
2018-02-15T07:50:07.612Z,36.33
2018-02-15T07:52:35.921Z,30.97
2018-02-15T07:55:04.300Z,28.08
2018-02-15T07:57:38.169Z,32.40
2018-02-15T08:00:05.615Z,35.67
2018-02-15T08:02:33.067Z,31.87
2018-02-15T08:05:00.544Z,31.10
2018-02-15T08:07:28.255Z,31.13
2018-02-15T08:09:55.769Z,31.67
2018-02-15T08:12:24.759Z,36.38
2018-02-15T08:14:52.527Z,37.90
2018-02-15T08:17:19.980Z,30.67
2018-02-15T08:19:47.453Z,37.93
2018-02-15T08:22:14.896Z,33.92
2018-02-15T08:24:42.456Z,36.05
2018-02-15T08:27:09.914Z,37.90
2018-02-15T08:29:38.315Z,41.78
2018-02-15T08:32:06.125Z,36.80
2018-02-15T08:34:33.595Z,50.92
2018-02-15T08:37:01.101Z,40.93
2018-02-15T08:39:29.351Z,38.85
2018-02-15T08:41:57.273Z,35.68
2018-02-15T08:44:24.739Z,32.43
2018-02-15T08:46:52.225Z,49.23
2018-02-15T08:49:19.651Z,33.90
2018-02-15T08:51:47.156Z,45.67
2018-02-15T08:54:14.606Z,28.70
2018-02-15T08:56:42.072Z,60.10
2018-02-15T08:59:12.960Z,35.54
2018-02-15T09:01:41.996Z,38.70
2018-02-15T09:04:09.525Z,41.40
2018-02-15T09:06:37.006Z,40.87
2018-02-15T09:09:06.149Z,47.55
2018-02-15T09:11:33.608Z,51.83
2018-02-15T09:14:04.084Z,38.47
2018-02-15T09:16:31.572Z,44.35
2018-02-15T09:18:59.092Z,30.00
2018-02-15T09:21:26.571Z,57.03
2018-02-15T09:23:54.221Z,39.05
2018-02-15T09:26:21.671Z,51.85
2018-02-15T09:28:49.616Z,31.12
2018-02-15T09:31:17.096Z,58.47
2018-02-15T09:33:45.631Z,29.10
2018-02-15T09:36:13.092Z,34.40
2018-02-15T09:38:40.565Z,33.15
2018-02-15T09:41:08.938Z,29.75
2018-02-15T09:43:36.422Z,30.52
2018-02-15T09:46:05.031Z,31.90
2018-02-15T09:48:33.439Z,49.72
2018-02-15T09:51:01.704Z,35.20
2018-02-15T09:53:29.152Z,42.17
2018-02-15T09:55:57.167Z,31.17
2018-02-15T09:58:24.640Z,39.40
2018-02-15T10:00:53.821Z,33.93
2018-02-15T10:03:21.286Z,40.10
2018-02-15T10:05:48.724Z,32.03
2018-02-15T10:08:16.210Z,28.23
2018-02-15T10:10:43.696Z,25.30
2018-02-15T10:13:11.169Z,31.65
2018-02-15T10:15:49.872Z,26.08
2018-02-15T10:18:17.326Z,32.80
2018-02-15T10:20:44.797Z,28.60
2018-02-15T10:23:13.458Z,43.93
2018-02-15T10:25:40.924Z,26.20
2018-02-15T10:28:08.370Z,29.30
2018-02-15T10:30:38.904Z,35.20
2018-02-15T10:33:06.665Z,48.87
2018-02-15T10:35:34.132Z,37.57
2018-02-15T10:38:02.539Z,24.27
2018-02-15T10:40:30.048Z,26.95
2018-02-15T10:42:57.508Z,23.37
2018-02-15T10:45:25.091Z,31.00
2018-02-15T10:47:52.543Z,39.15
2018-02-15T10:50:20.012Z,22.77
2018-02-15T10:52:48.325Z,15.90
2018-02-15T10:55:16.680Z,24.60
2018-02-15T10:57:44.918Z,26.97
2018-02-15T11:00:12.385Z,29.73
2018-02-15T11:02:39.881Z,25.90
2018-02-15T11:05:21.944Z,14.83
2018-02-15T11:07:50.112Z,28.27
2018-02-15T11:10:18.148Z,22.67
2018-02-15T11:12:45.624Z,20.20
2018-02-15T11:15:13.125Z,29.60
2018-02-15T11:17:40.592Z,22.90
2018-02-15T11:20:08.116Z,20.15
2018-02-15T11:22:35.567Z,19.10
2018-02-15T11:25:03.022Z,19.93
2018-02-15T11:27:30.683Z,33.53
2018-02-15T11:29:58.143Z,17.80
2018-02-15T11:32:27.132Z,18.48
2018-02-15T11:34:54.612Z,29.10
2018-02-15T11:37:22.206Z,27.85
2018-02-15T11:39:51.344Z,20.12
2018-02-15T11:42:18.823Z,19.00
2018-02-15T11:44:46.564Z,20.20
2018-02-15T11:47:18.324Z,18.73
2018-02-15T11:49:45.916Z,23.00
2018-02-15T11:52:14.130Z,14.37
2018-02-15T11:54:41.639Z,24.90
2018-02-15T11:57:09.109Z,16.00
2018-02-15T11:59:36.582Z,20.77
2018-02-15T12:02:08.680Z,26.60
2018-02-15T12:04:36.183Z,23.50
2018-02-15T12:07:03.633Z,20.47
2018-02-15T12:09:31.080Z,21.47
2018-02-15T12:11:58.760Z,15.57
2018-02-15T12:14:26.196Z,15.20
2018-02-15T12:17:00.436Z,19.08
2018-02-15T12:19:28.666Z,30.98
2018-02-15T12:21:56.108Z,15.13
2018-02-15T12:24:23.665Z,22.37
2018-02-15T12:26:51.101Z,16.47
2018-02-15T12:29:20.364Z,11.82
2018-02-15T12:31:47.943Z,12.53
2018-02-15T12:34:15.386Z,20.90
2018-02-15T12:36:42.857Z,24.27
2018-02-15T12:39:10.331Z,13.67
2018-02-15T12:41:38.636Z,19.97
2018-02-15T12:44:06.157Z,8.93
2018-02-15T12:46:34.482Z,17.55
2018-02-15T12:49:05.039Z,15.05
2018-02-15T12:51:32.569Z,13.43
2018-02-15T12:54:00.183Z,18.30
2018-02-15T12:56:28.507Z,15.32
2018-02-15T12:58:56.628Z,13.15
2018-02-15T13:01:24.156Z,11.77
2018-02-15T13:03:51.624Z,18.90
2018-02-15T13:06:19.110Z,10.10
2018-02-15T13:08:46.880Z,12.40
2018-02-15T13:11:15.096Z,17.90
2018-02-15T13:13:42.580Z,15.07
2018-02-15T13:16:21.829Z,20.47
2018-02-15T13:21:45.755Z,17.65
2018-02-15T13:24:13.255Z,8.98
2018-02-15T13:26:40.717Z,6.80
2018-02-15T13:29:08.196Z,8.20
2018-02-15T13:31:35.658Z,10.40
2018-02-15T13:34:03.117Z,7.57
2018-02-15T13:36:30.594Z,13.32
2018-02-15T13:38:58.096Z,10.60
2018-02-15T13:41:25.541Z,8.65
2018-02-15T13:43:53.776Z,10.27
2018-02-15T13:46:21.640Z,7.87
2018-02-15T13:48:52.862Z,7.97
2018-02-15T13:51:20.300Z,7.33
2018-02-15T13:53:47.798Z,8.43
2018-02-15T13:56:15.307Z,6.90
2018-02-15T13:58:42.771Z,10.15
2018-02-15T14:01:11.130Z,14.80
2018-02-15T14:03:43.120Z,8.57
2018-02-15T14:06:10.903Z,10.27
2018-02-15T14:08:38.352Z,8.00
2018-02-15T14:11:06.151Z,18.27
2018-02-15T14:13:33.776Z,11.53
2018-02-15T14:16:01.243Z,14.70
2018-02-15T14:18:28.691Z,18.67
2018-02-15T14:20:56.160Z,10.55
2018-02-15T14:23:23.622Z,13.97
2018-02-15T14:25:51.088Z,34.57
2018-02-15T14:28:20.255Z,10.25
2018-02-15T14:30:47.740Z,17.33
2018-02-15T14:33:15.966Z,19.92
2018-02-15T14:35:48.044Z,13.23
2018-02-15T14:38:15.553Z,15.13
2018-02-15T14:40:43.161Z,17.58
2018-02-15T14:43:11.368Z,14.70
2018-02-15T14:45:39.645Z,15.30
2018-02-15T14:48:07.085Z,21.67
2018-02-15T14:50:37.460Z,20.53
2018-02-15T14:53:04.928Z,15.37
2018-02-15T14:55:32.400Z,19.57
2018-02-15T14:57:59.858Z,25.10
2018-02-15T15:00:27.364Z,12.07
2018-02-15T15:02:55.566Z,18.03
2018-02-15T15:05:24.904Z,22.30
2018-02-15T15:07:52.896Z,11.27
2018-02-15T15:10:20.361Z,19.00
2018-02-15T15:12:47.952Z,17.27
2018-02-15T15:15:15.439Z,17.55
2018-02-15T15:17:42.892Z,17.73
2018-02-15T15:20:13.852Z,24.10
2018-02-15T15:22:41.294Z,18.87
2018-02-15T15:25:08.880Z,25.80
2018-02-15T15:27:36.351Z,24.73
2018-02-15T15:30:03.942Z,21.53
2018-02-15T15:32:32.312Z,16.98
2018-02-15T15:35:04.918Z,25.80
2018-02-15T15:37:32.680Z,16.73
2018-02-15T15:40:00.165Z,28.23
2018-02-15T15:42:27.608Z,18.13
2018-02-15T15:44:55.070Z,16.02
2018-02-15T15:47:22.509Z,15.40
2018-02-15T15:49:49.968Z,20.43
2018-02-15T15:52:17.500Z,28.27
2018-02-15T15:54:44.964Z,18.87
2018-02-15T15:57:12.412Z,22.97
2018-02-15T15:59:40.701Z,27.77
2018-02-15T16:02:08.166Z,44.08
2018-02-15T16:04:35.612Z,33.87
2018-02-15T16:07:03.072Z,21.60
2018-02-15T16:09:30.568Z,14.20
2018-02-15T16:11:58.074Z,11.93
2018-02-15T16:14:25.537Z,15.30
2018-02-15T16:16:53.022Z,18.30
2018-02-15T16:19:20.708Z,22.35
2018-02-15T16:21:49.851Z,15.80
2018-02-15T16:24:17.326Z,14.60
2018-02-15T16:26:44.787Z,16.63
2018-02-15T16:29:12.800Z,13.03
2018-02-15T16:31:40.265Z,25.88
2018-02-15T16:34:08.724Z,13.13
2018-02-15T16:36:39.712Z,15.80
2018-02-15T16:39:07.181Z,37.25
2018-02-15T16:41:34.631Z,17.55
2018-02-15T16:44:02.856Z,13.15
2018-02-15T16:46:30.311Z,27.33
2018-02-15T16:48:57.920Z,17.83
2018-02-15T16:51:25.423Z,19.47
2018-02-15T16:53:52.900Z,17.40
2018-02-15T16:56:20.432Z,17.63
2018-02-15T16:58:47.918Z,23.53
2018-02-15T17:01:15.384Z,20.30
2018-02-15T17:03:42.843Z,25.90
2018-02-15T17:06:10.324Z,13.70
2018-02-15T17:08:38.024Z,19.17
2018-02-15T17:11:06.027Z,28.95
2018-02-15T17:13:33.488Z,13.55
2018-02-15T17:16:01.018Z,15.70
2018-02-15T17:18:28.497Z,15.73
2018-02-15T17:20:55.962Z,20.35
2018-02-15T17:23:23.404Z,17.03
2018-02-15T17:25:51.038Z,20.30
2018-02-15T17:28:19.533Z,17.87
2018-02-15T17:30:48.491Z,14.10
2018-02-15T17:33:15.982Z,17.45
2018-02-15T17:35:44.435Z,19.92
2018-02-15T17:38:11.925Z,22.00
2018-02-15T17:40:39.424Z,23.45
2018-02-15T17:43:07.732Z,19.02
2018-02-15T17:45:35.197Z,13.52
2018-02-15T17:48:03.780Z,13.54
2018-02-15T17:50:31.239Z,20.40
2018-02-15T17:53:02.997Z,17.70
2018-02-15T17:55:30.463Z,17.27
2018-02-15T17:57:59.437Z,20.37
2018-02-15T18:00:26.921Z,21.10
2018-02-15T18:02:54.364Z,18.03
2018-02-15T18:05:21.856Z,17.13
2018-02-15T18:07:53.904Z,22.73
2018-02-15T18:10:21.359Z,16.85
2018-02-15T18:12:48.815Z,16.58
2018-02-15T18:15:16.288Z,16.73
2018-02-15T18:17:43.772Z,17.17
2018-02-15T18:20:11.617Z,15.25
2018-02-15T18:22:39.199Z,19.30
2018-02-15T18:25:06.945Z,26.10
2018-02-15T18:27:34.423Z,25.13
2018-02-15T18:30:01.877Z,17.43
2018-02-15T18:32:29.359Z,26.43
2018-02-15T18:34:56.839Z,18.27
2018-02-15T18:37:24.320Z,21.63
2018-02-15T18:39:52.048Z,20.43
2018-02-15T18:42:19.640Z,22.30
2018-02-15T18:44:47.880Z,25.90
2018-02-15T18:47:15.477Z,21.47
2018-02-15T18:49:43.757Z,20.62
2018-02-15T18:52:11.212Z,29.50
2018-02-15T18:54:42.620Z,37.77
2018-02-15T18:57:10.164Z,28.23
2018-02-15T18:59:37.658Z,24.80
2018-02-15T19:02:05.178Z,22.63
2018-02-15T19:04:33.440Z,35.60
2018-02-15T19:07:01.081Z,36.25
2018-02-15T19:09:29.829Z,27.35
2018-02-15T19:11:57.283Z,28.08
2018-02-15T19:14:25.664Z,23.33
2018-02-15T19:16:55.143Z,26.63
2018-02-15T19:19:22.663Z,26.70
2018-02-15T19:21:50.124Z,24.53
2018-02-15T19:24:18.488Z,25.62
2018-02-15T19:26:46.019Z,27.27
2018-02-15T19:29:13.453Z,32.50
2018-02-15T19:31:40.927Z,24.75
2018-02-15T19:34:08.401Z,23.03
2018-02-15T19:36:38.289Z,25.33
2018-02-15T19:39:05.750Z,28.52
2018-02-15T19:41:33.215Z,32.37
2018-02-15T19:44:00.695Z,23.42
2018-02-15T19:46:28.171Z,21.98
2018-02-15T19:48:55.600Z,42.27
2018-02-15T19:51:23.132Z,29.40
2018-02-15T19:53:50.599Z,29.75
2018-02-15T19:56:18.120Z,25.20
2018-02-15T19:58:46.917Z,39.82
2018-02-15T20:01:16.591Z,27.55
2018-02-15T20:03:44.045Z,52.33
2018-02-15T20:06:11.484Z,30.63
2018-02-15T20:08:39.009Z,34.60
2018-02-15T20:11:06.461Z,32.95
2018-02-15T20:13:34.152Z,38.87
2018-02-15T20:16:03.118Z,26.73
2018-02-15T20:18:30.619Z,35.30
2018-02-15T20:20:58.144Z,31.60
2018-02-15T20:23:25.643Z,48.63
2018-02-15T20:26:00.508Z,35.80
2018-02-15T20:28:27.944Z,32.30
2018-02-15T20:30:55.536Z,43.73
2018-02-15T20:33:23.042Z,39.92
2018-02-15T20:35:50.506Z,33.38
2018-02-15T20:38:23.569Z,44.10
2018-02-15T20:40:54.337Z,49.03
2018-02-15T20:43:22.092Z,30.40
2018-02-15T20:45:49.562Z,46.67
2018-02-15T20:48:17.035Z,58.40
2018-02-15T20:50:51.569Z,49.72
2018-02-15T20:53:24.771Z,35.83
2018-02-15T20:55:55.667Z,38.22
2018-02-15T20:58:23.118Z,49.70
2018-02-15T21:00:50.649Z,38.63
2018-02-15T21:03:18.100Z,38.42
2018-02-15T21:05:45.667Z,45.20
2018-02-15T21:08:13.125Z,46.05
2018-02-15T21:10:44.121Z,47.38
2018-02-15T21:13:11.577Z,42.80
2018-02-15T21:15:39.029Z,44.50
2018-02-15T21:18:06.492Z,38.73
2018-02-15T21:20:33.943Z,45.90
2018-02-15T21:23:01.712Z,46.97
2018-02-15T21:25:29.195Z,56.05
2018-02-15T21:27:56.644Z,41.70
2018-02-15T21:30:25.545Z,47.50
2018-02-15T21:32:53.023Z,45.63
2018-02-15T21:35:21.045Z,43.43
2018-02-15T21:37:48.520Z,43.63
2018-02-15T21:40:16.001Z,45.70
2018-02-15T21:42:44.404Z,48.00
2018-02-15T21:45:11.947Z,49.03
2018-02-15T21:47:39.412Z,43.50
2018-02-15T21:50:06.920Z,37.08
2018-02-15T21:52:34.390Z,55.57
2018-02-15T21:55:01.944Z,46.37
2018-02-15T21:57:29.399Z,48.40
2018-02-15T21:59:57.815Z,44.20
2018-02-15T22:02:25.404Z,46.67
2018-02-15T22:04:53.951Z,40.77
2018-02-15T22:07:21.447Z,38.70
2018-02-15T22:09:48.932Z,52.20
2018-02-15T22:12:17.327Z,53.50
2018-02-15T22:14:44.789Z,49.43
2018-02-15T22:17:12.272Z,56.97
2018-02-15T22:19:39.724Z,47.87
2018-02-15T22:22:07.198Z,53.43
2018-02-15T22:24:36.343Z,43.50
2018-02-15T22:27:07.531Z,46.77
2018-02-15T22:29:34.981Z,53.27
2018-02-15T22:32:02.486Z,47.30
2018-02-15T22:34:29.948Z,49.72
2018-02-15T22:36:57.421Z,44.03
2018-02-15T22:39:25.728Z,44.90
2018-02-15T22:41:54.695Z,55.00
2018-02-15T22:44:22.160Z,57.85
2018-02-15T22:46:50.860Z,46.15
2018-02-15T22:49:18.314Z,48.78
2018-02-15T22:51:46.326Z,46.53
2018-02-15T22:54:13.785Z,46.37
2018-02-15T22:56:41.273Z,44.22
2018-02-15T22:59:13.686Z,43.55
2018-02-15T23:01:41.461Z,52.22
2018-02-15T23:04:08.927Z,42.72
2018-02-15T23:06:36.662Z,47.90
2018-02-15T23:09:04.496Z,56.08
2018-02-15T23:11:31.971Z,48.58
2018-02-15T23:13:59.463Z,40.93
2018-02-15T23:16:27.041Z,48.70
2018-02-15T23:18:54.531Z,45.92
2018-02-15T23:21:21.989Z,47.30
2018-02-15T23:23:49.635Z,53.10
2018-02-15T23:26:17.094Z,42.33
2018-02-15T23:28:44.544Z,47.00
2018-02-15T23:31:12.961Z,45.57
2018-02-15T23:33:40.440Z,49.40
2018-02-15T23:36:07.917Z,47.25
2018-02-15T23:38:35.405Z,55.58
2018-02-15T23:41:02.857Z,48.78
2018-02-15T23:43:34.000Z,47.50
2018-02-15T23:46:02.399Z,48.83
2018-02-15T23:48:29.869Z,49.00
2018-02-15T23:50:58.572Z,44.57
2018-02-15T23:53:26.976Z,45.72
2018-02-15T23:55:54.457Z,42.80
2018-02-15T23:58:25.054Z,45.70
